Time;durP1;ratioP1;P1;durP2;ratioP2;P2;SDS_P1;SDS_P2;PMS_P1;PMS_P2;Temp;Humidity;BMP_temperature;BMP_pressure;BME280_temperature;BME280_humidity;BME280_pressure;Samples;Min_cycle;Max_cycle;Signal;HPM_P1;HPM_P2
2022/08/18 00:01:46;;;;;;;22.38;13.98;;;;;;;26.01;67.36;100066.41;5055806;28;20036;-77
2022/08/18 00:04:12;;;;;;;15.43;13.30;;;;;;;25.95;67.30;100065.47;5055742;28;20040;-77
2022/08/18 00:06:38;;;;;;;14.90;12.70;;;;;;;25.97;66.54;100057.78;5055538;28;20390;-78
2022/08/18 00:09:06;;;;;;;15.73;12.70;;;;;;;26.06;66.17;100063.78;5055635;28;20029;-77
2022/08/18 00:11:38;;;;;;;20.48;12.32;;;;;;;26.07;66.28;100069.06;5055759;28;20402;-78
2022/08/18 00:14:04;;;;;;;19.80;12.82;;;;;;;26.06;66.28;100058.25;5055754;28;20036;-77
2022/08/18 00:16:29;;;;;;;20.17;13.32;;;;;;;26.08;66.32;100059.72;5055713;28;20037;-77
2022/08/18 00:18:55;;;;;;;16.75;12.43;;;;;;;26.05;66.21;100051.94;5055542;28;20052;-77
2022/08/18 00:21:20;;;;;;;22.25;14.00;;;;;;;26.09;66.53;100060.53;5055586;28;20029;-76
2022/08/18 00:23:45;;;;;;;21.73;13.63;;;;;;;26.06;66.31;100052.75;5055746;28;20025;-77
2022/08/18 00:26:11;;;;;;;19.05;13.57;;;;;;;26.09;66.23;100055.88;5055624;28;20032;-77
2022/08/18 00:28:36;;;;;;;14.65;12.90;;;;;;;26.13;66.21;100061.75;5055426;28;20146;-76
2022/08/18 00:31:03;;;;;;;30.55;12.90;;;;;;;26.14;65.27;100066.19;5055494;28;20028;-77
2022/08/18 00:33:29;;;;;;;17.20;12.77;;;;;;;26.13;65.11;100070.00;5055578;28;20029;-77
2022/08/18 00:35:55;;;;;;;23.88;13.50;;;;;;;26.05;65.51;100075.91;5055911;28;20107;-77
2022/08/18 00:38:21;;;;;;;20.85;14.50;;;;;;;26.05;65.33;100067.63;5055475;28;20028;-77
2022/08/18 00:40:49;;;;;;;20.95;14.70;;;;;;;26.04;65.50;100085.22;5055452;28;20467;-77
2022/08/18 00:43:30;;;;;;;24.73;15.30;;;;;;;26.03;65.39;100084.38;5055093;28;20112;-77
2022/08/18 00:45:56;;;;;;;24.35;14.35;;;;;;;25.97;65.30;100074.31;5055076;28;20037;-77
2022/08/18 00:48:21;;;;;;;16.90;14.00;;;;;;;25.89;65.17;100083.78;5054654;28;20222;-77
2022/08/18 00:51:10;;;;;;;22.42;14.27;;;;;;;25.91;65.38;100076.13;5053206;28;20033;-77
2022/08/18 00:53:50;;;;;;;16.92;14.32;;;;;;;25.95;64.99;100079.25;5054621;28;20032;-76
2022/08/18 00:56:23;;;;;;;23.48;14.40;;;;;;;25.86;64.90;100078.75;5054591;28;20142;-77
2022/08/18 00:58:58;;;;;;;20.08;15.98;;;;;;;25.89;64.84;100089.31;5054674;28;20445;-77
2022/08/18 01:01:27;;;;;;;31.58;20.48;;;;;;;25.91;64.42;100086.28;5054528;28;20116;-76
2022/08/18 01:04:01;;;;;;;28.40;17.65;;;;;;;25.88;64.29;100086.75;5054676;28;20356;-76
2022/08/18 01:06:31;;;;;;;26.05;17.92;;;;;;;25.92;64.47;100086.06;5053238;28;20466;-76
2022/08/18 01:08:57;;;;;;;24.45;17.65;;;;;;;25.90;64.58;100085.44;5054165;28;20074;-76
2022/08/18 01:11:23;;;;;;;27.95;16.92;;;;;;;25.90;64.08;100084.63;5053099;28;20052;-76
2022/08/18 01:13:48;;;;;;;25.70;16.98;;;;;;;25.83;64.39;100079.22;5054302;28;20130;-78
2022/08/18 01:21:50;;;;;;;31.38;20.92;;;;;;;25.83;63.76;100078.38;5053959;28;20158;-76
2022/08/18 01:24:18;;;;;;;33.85;21.52;;;;;;;25.78;63.59;100075.47;5054074;28;20422;-76
2022/08/18 01:26:49;;;;;;;30.30;23.92;;;;;;;25.71;63.72;100072.00;5054199;28;20029;-76
2022/08/18 01:29:17;;;;;;;39.35;22.27;;;;;;;25.76;63.42;100081.25;5054002;28;20033;-76
2022/08/18 01:31:48;;;;;;;28.98;21.95;;;;;;;25.73;63.33;100084.47;5053805;28;20463;-77
2022/08/18 01:34:15;;;;;;;28.80;21.40;;;;;;;25.70;63.74;100084.94;5053929;28;20021;-77
2022/08/18 01:36:41;;;;;;;31.92;22.38;;;;;;;25.57;63.85;100085.16;5053945;28;20043;-77
2022/08/18 01:39:10;;;;;;;33.00;21.65;;;;;;;25.58;63.57;100074.97;5053910;28;20033;-77
2022/08/18 01:41:35;;;;;;;35.50;21.73;;;;;;;25.55;63.66;100070.78;5053954;28;20029;-76
2022/08/18 01:44:01;;;;;;;32.13;19.75;;;;;;;25.56;63.53;100066.97;5053781;28;20037;-76
2022/08/18 01:46:30;;;;;;;40.35;19.40;;;;;;;25.55;63.19;100068.03;5053736;28;20032;-76
2022/08/18 01:49:00;;;;;;;45.22;20.95;;;;;;;25.62;63.28;100077.03;5053304;28;20049;-76
2022/08/18 01:51:31;;;;;;;29.40;19.80;;;;;;;25.61;63.20;100078.09;5053389;28;20380;-76
2022/08/18 01:53:57;;;;;;;34.35;19.55;;;;;;;25.57;63.14;100063.09;5053747;28;20024;-77
2022/08/18 01:56:25;;;;;;;28.65;18.38;;;;;;;25.61;62.19;100074.50;5053094;28;20367;-77
2022/08/18 01:58:51;;;;;;;29.83;18.35;;;;;;;25.58;62.11;100074.97;5053436;28;20028;-77
2022/08/18 02:01:16;;;;;;;30.90;18.00;;;;;;;25.59;62.32;100072.00;5053375;28;20070;-77
2022/08/18 02:03:47;;;;;;;31.88;19.40;;;;;;;25.58;62.11;100073.06;5052860;28;20401;-77
2022/08/18 02:06:17;;;;;;;31.45;19.42;;;;;;;25.60;62.03;100076.41;5053430;28;20082;-77
2022/08/18 02:08:43;;;;;;;36.25;18.02;;;;;;;25.55;62.04;100076.28;5053156;28;20169;-76
2022/08/18 02:11:08;;;;;;;21.48;17.33;;;;;;;25.59;61.86;100069.25;5053270;28;20025;-76
2022/08/18 02:13:35;;;;;;;24.23;17.70;;;;;;;25.48;61.67;100072.75;5053106;28;20024;-76
2022/08/18 02:16:01;;;;;;;27.40;16.73;;;;;;;25.45;61.97;100075.97;5053330;28;20041;-76
2022/08/18 02:18:30;;;;;;;38.75;17.90;;;;;;;25.44;62.28;100069.63;5053099;28;20056;-76
2022/08/18 02:20:57;;;;;;;28.70;16.65;;;;;;;25.53;61.86;100067.44;5053204;28;20447;-77
2022/08/18 02:23:23;;;;;;;26.95;17.40;;;;;;;25.55;61.15;100073.53;5052984;28;20044;-76
2022/08/18 02:25:49;;;;;;;36.28;17.50;;;;;;;25.53;61.11;100072.94;5053218;28;20043;-77
2022/08/18 02:28:15;;;;;;;23.92;17.17;;;;;;;25.51;61.06;100072.31;5053028;28;20028;-75
2022/08/18 02:30:41;;;;;;;28.85;16.02;;;;;;;25.55;60.79;100075.44;5052642;28;20036;-76
2022/08/18 02:33:09;;;;;;;29.02;16.00;;;;;;;25.55;60.55;100076.28;5052583;28;20493;-76
2022/08/18 02:35:35;;;;;;;22.75;15.80;;;;;;;25.49;60.57;100076.38;5052846;28;20048;-76
2022/08/18 02:38:02;;;;;;;28.75;18.08;;;;;;;25.53;60.64;100064.69;5052851;28;20471;-76
2022/08/18 02:40:28;;;;;;;29.45;16.55;;;;;;;25.50;60.32;100073.41;5052718;28;20127;-76
2022/08/18 02:42:54;;;;;;;26.30;16.17;;;;;;;25.46;60.56;100074.91;5052694;28;20055;-77
2022/08/18 02:45:24;;;;;;;31.13;17.33;;;;;;;25.44;60.65;100079.81;5052681;28;20028;-76
2022/08/18 02:47:53;;;;;;;23.00;16.50;;;;;;;25.35;60.46;100071.03;5052514;28;20037;-76
2022/08/18 02:50:19;;;;;;;26.95;15.93;;;;;;;25.41;60.27;100083.06;5052584;28;20438;-76
2022/08/18 02:52:45;;;;;;;23.58;15.20;;;;;;;25.46;59.96;100083.19;5052454;28;20049;-76
2022/08/18 02:55:11;;;;;;;25.13;15.00;;;;;;;25.47;59.79;100079.34;5052464;28;20056;-76
2022/08/18 02:57:41;;;;;;;30.20;15.82;;;;;;;25.43;60.20;100075.38;5052718;28;20025;-76
2022/08/18 03:00:10;;;;;;;22.83;14.38;;;;;;;25.40;60.07;100084.13;5052655;28;20090;-76
2022/08/18 03:02:35;;;;;;;23.90;14.18;;;;;;;25.43;59.95;100089.16;5052703;28;20384;-76
2022/08/18 03:05:01;;;;;;;23.83;14.07;;;;;;;25.47;59.55;100078.50;5052090;28;20032;-75
2022/08/18 03:07:26;;;;;;;24.08;14.10;;;;;;;25.50;59.26;100081.69;5052268;28;20028;-75
2022/08/18 03:09:51;;;;;;;25.15;13.65;;;;;;;25.52;59.18;100087.78;5052207;28;20033;-75
2022/08/18 03:12:17;;;;;;;19.52;12.85;;;;;;;25.53;59.07;100089.47;5052484;28;20028;-76
2022/08/18 03:14:42;;;;;;;37.40;14.57;;;;;;;25.56;59.10;100091.75;5051522;28;20028;-76
2022/08/18 03:17:09;;;;;;;18.05;13.18;;;;;;;25.66;58.90;100088.41;5051870;28;20028;-76
2022/08/18 03:19:35;;;;;;;27.55;13.82;;;;;;;25.67;58.92;100096.44;5051962;28;20076;-76
2022/08/18 03:22:00;;;;;;;19.45;14.85;;;;;;;25.67;58.97;100087.31;5051839;28;20025;-76
2022/08/18 03:24:27;;;;;;;21.33;14.50;;;;;;;25.72;59.04;100098.47;5051798;28;20499;-76
2022/08/18 03:26:55;;;;;;;45.40;16.70;;;;;;;25.68;59.29;100100.03;5051704;28;20055;-76
2022/08/18 03:29:22;;;;;;;28.42;16.17;;;;;;;25.74;59.35;100108.19;5051556;28;20116;-77
2022/08/18 03:31:49;;;;;;;24.92;15.55;;;;;;;25.78;59.45;100109.38;5051744;28;20037;-76
2022/08/18 03:34:18;;;;;;;28.52;16.42;;;;;;;25.70;59.73;100098.72;5051886;28;20036;-81
2022/08/18 03:36:44;;;;;;;21.98;15.95;;;;;;;25.70;59.21;100089.59;5052239;28;20067;-83
2022/08/18 03:39:12;;;;;;;22.35;15.32;;;;;;;25.76;59.31;100108.78;5052178;28;20108;-81
2022/08/18 03:41:42;;;;;;;29.08;15.45;;;;;;;25.86;58.83;100125.59;5051875;28;20029;-79
2022/08/18 03:44:13;;;;;;;27.42;15.27;;;;;;;25.87;58.59;100124.50;5052409;28;20478;-82
2022/08/18 03:46:40;;;;;;;31.80;15.95;;;;;;;25.88;58.37;100130.84;5053327;28;20406;-83
2022/08/18 03:49:06;;;;;;;28.65;16.25;;;;;;;25.86;58.08;100122.84;5053568;28;20025;-85
2022/08/18 03:51:32;;;;;;;26.35;15.63;;;;;;;25.90;58.03;100135.06;5053525;28;20128;-84
2022/08/18 03:54:00;;;;;;;31.13;15.95;;;;;;;25.85;57.81;100132.16;5053659;28;20041;-83
2022/08/18 03:56:31;;;;;;;26.58;15.88;;;;;;;25.85;57.78;100132.16;5053696;28;20436;-83
2022/08/18 03:59:03;;;;;;;26.48;16.23;;;;;;;25.79;57.69;100121.25;5053167;28;20062;-84
2022/08/18 04:01:32;;;;;;;30.60;15.48;;;;;;;25.83;57.69;100122.47;5053121;28;20055;-84
2022/08/18 04:04:02;;;;;;;20.92;15.10;;;;;;;25.87;57.41;100140.22;5052731;28;20471;-83
2022/08/18 04:06:31;;;;;;;23.75;14.00;;;;;;;25.87;57.59;100137.47;5053496;28;20078;-82
2022/08/18 04:08:59;;;;;;;29.55;15.13;;;;;;;25.89;57.49;100141.66;5053783;28;20028;-84
2022/08/18 04:11:28;;;;;;;37.42;16.77;;;;;;;25.84;57.42;100140.69;5052555;28;20043;-85
2022/08/18 04:13:56;;;;;;;32.92;19.17;;;;;;;25.93;57.22;100156.63;5053451;28;20028;-86
2022/08/18 04:16:27;;;;;;;36.47;20.23;;;;;;;26.03;57.06;100160.72;5052155;28;20036;-84
2022/08/18 04:18:52;;;;;;;53.45;22.98;;;;;;;25.97;56.95;100155.09;5053534;28;20513;-81
2022/08/18 04:21:18;;;;;;;42.20;23.17;;;;;;;25.93;56.97;100162.13;5051226;28;20021;-78
2022/08/18 04:23:43;;;;;;;48.95;22.95;;;;;;;26.01;56.69;100172.00;5051092;28;20025;-79
2022/08/18 04:26:11;;;;;;;52.78;27.35;;;;;;;26.04;56.73;100174.28;5054641;28;20457;-85
2022/08/18 04:28:38;;;;;;;42.22;25.17;;;;;;;25.98;56.80;100154.03;5056862;28;20055;-84
2022/08/18 04:31:13;;;;;;;42.40;25.00;;;;;;;26.01;56.78;100168.38;5056700;28;20033;-84
2022/08/18 04:33:39;;;;;;;40.03;25.15;;;;;;;26.02;56.96;100175.59;5056118;28;20035;-83
2022/08/18 04:36:13;;;;;;;53.47;26.13;;;;;;;25.89;57.19;100158.19;5056079;28;20029;-85
2022/08/18 04:38:42;;;;;;;64.90;25.70;;;;;;;26.12;57.44;100181.34;5056176;28;20029;-82
2022/08/18 04:41:12;;;;;;;41.53;24.23;;;;;;;26.16;57.05;100185.34;5056295;28;20025;-84
2022/08/18 04:43:39;;;;;;;57.97;26.48;;;;;;;26.17;57.13;100190.66;5056032;28;20021;-84
2022/08/18 04:46:05;;;;;;;43.17;24.20;;;;;;;26.20;56.88;100179.16;5056578;28;20440;-84
2022/08/18 04:48:37;;;;;;;65.82;26.83;;;;;;;26.25;56.96;100178.41;5055898;28;20090;-85
2022/08/18 04:51:09;;;;;;;49.70;28.23;;;;;;;26.39;57.19;100188.16;5058950;28;20111;-86
2022/08/18 04:53:44;;;;;;;46.17;26.60;;;;;;;26.38;57.01;100187.31;5056173;28;20039;-83
2022/08/18 04:56:25;;;;;;;41.17;22.55;;;;;;;26.39;57.39;100179.88;5057587;28;20036;-85
2022/08/18 04:59:06;;;;;;;77.95;25.25;;;;;;;26.40;57.79;100182.38;5057149;28;20032;-85
2022/08/18 05:01:41;;;;;;;30.73;21.10;;;;;;;26.36;57.93;100189.44;5058443;28;20474;-85
2022/08/18 05:04:07;;;;;;;47.25;20.05;;;;;;;26.37;57.92;100191.13;5059209;28;20025;-86
2022/08/18 05:06:34;;;;;;;65.35;22.52;;;;;;;26.37;58.30;100191.13;5059263;28;20545;-86
2022/08/18 05:09:05;;;;;;;43.10;18.30;;;;;;;26.37;58.55;100202.16;5059090;28;20406;-85
2022/08/18 05:11:34;;;;;;;37.28;19.60;;;;;;;26.25;59.12;100182.00;5058631;28;20100;-86
2022/08/18 05:14:06;;;;;;;43.22;20.23;;;;;;;26.32;59.87;100195.69;5056783;28;20075;-86
2022/08/18 05:16:35;;;;;;;49.07;20.57;;;;;;;26.22;60.32;100198.19;5058018;28;20494;-85
2022/08/18 05:19:08;;;;;;;82.57;24.42;;;;;;;26.30;60.61;100208.84;5058371;28;20547;-86
2022/08/18 05:21:35;;;;;;;46.80;20.30;;;;;;;26.18;60.29;100174.91;5058205;28;20106;-85
2022/08/18 05:24:02;;;;;;;44.33;21.30;;;;;;;26.30;60.27;100203.34;5057966;28;20059;-86
2022/08/18 05:26:28;;;;;;;21.35;12.35;;;;;;;26.35;60.17;100203.50;5057807;28;20029;-85
2022/08/18 05:28:54;;;;;;;30.08;11.77;;;;;;;26.32;59.97;100188.28;5057988;28;20551;-85
2022/08/18 05:31:22;;;;;;;63.58;14.70;;;;;;;26.51;60.23;100211.06;5057921;28;20029;-86
2022/08/18 05:33:48;;;;;;;64.05;17.60;;;;;;;26.62;59.72;100201.09;5058584;28;20040;-85
2022/08/18 05:36:14;;;;;;;41.42;12.93;;;;;;;26.71;59.88;100208.78;5058344;28;20029;-85
2022/08/18 05:38:58;;;;;;;19.75;9.93;;;;;;;26.81;59.68;100194.44;5056705;28;20489;-85
2022/08/18 05:41:32;;;;;;;31.83;11.63;;;;;;;26.88;59.41;100192.38;5057257;28;20442;-85
2022/08/18 05:43:59;;;;;;;49.83;12.77;;;;;;;27.02;59.13;100202.94;5057970;28;20105;-86
2022/08/18 05:46:42;;;;;;;17.33;10.35;;;;;;;27.07;59.09;100187.53;5058648;28;20528;-86
2022/08/18 05:49:09;;;;;;;65.07;16.30;;;;;;;27.08;59.08;100186.47;5060397;28;20021;-87
2022/08/18 05:51:43;;;;;;;16.77;10.27;;;;;;;27.15;58.69;100187.19;5069205;28;20044;-85
2022/08/18 05:57:01;;;;;;;50.78;18.25;;;;;;;27.36;58.31;100203.09;5055937;28;20036;-86
2022/08/18 05:59:31;;;;;;;30.80;16.73;;;;;;;27.39;57.65;100205.38;5055242;28;20021;-86
2022/08/18 06:02:09;;;;;;;21.38;16.15;;;;;;;27.47;57.42;100205.00;5055705;28;20129;-85
2022/08/18 06:04:44;;;;;;;33.05;17.80;;;;;;;27.50;57.44;100204.50;5055339;28;20032;-86
2022/08/18 06:07:14;;;;;;;27.95;15.45;;;;;;;27.53;56.64;100195.72;5055244;28;20039;-86
2022/08/18 06:09:50;;;;;;;22.08;16.17;;;;;;;27.45;56.96;100174.03;5053479;28;20410;-86
2022/08/18 06:12:48;;;;;;;24.05;15.88;;;;;;;27.66;57.03;100203.72;5055004;28;20032;-86
2022/08/18 06:15:21;;;;;;;27.00;17.05;;;;;;;27.67;56.44;100208.19;5054332;28;20119;-87
2022/08/18 06:17:46;;;;;;;29.98;16.42;;;;;;;27.75;56.63;100210.53;5055153;28;20085;-86
2022/08/18 06:20:36;;;;;;;35.55;18.05;;;;;;;27.83;56.66;100206.53;5056300;28;20052;-88
2022/08/18 06:23:11;;;;;;;37.05;17.27;;;;;;;27.87;56.09;100203.03;5055578;28;20490;-86
2022/08/18 06:25:47;;;;;;;27.17;14.65;;;;;;;27.81;56.17;100187.44;5055590;28;20390;-85
2022/08/18 06:28:15;;;;;;;31.75;14.73;;;;;;;27.95;56.02;100199.84;5054434;28;20035;-86
2022/08/18 06:30:40;;;;;;;22.95;13.77;;;;;;;28.02;55.98;100200.56;5056114;28;20028;-86
2022/08/18 06:33:12;;;;;;;34.70;14.00;;;;;;;28.10;55.87;100196.59;5055802;28;20490;-85
2022/08/18 06:35:49;;;;;;;29.85;15.20;;;;;;;28.13;55.74;100195.25;5055385;28;20029;-86
2022/08/18 06:38:40;;;;;;;30.13;15.45;;;;;;;28.20;55.49;100195.91;5055388;28;20021;-86
2022/08/18 06:41:20;;;;;;;37.70;16.30;;;;;;;28.33;55.07;100206.66;5054514;28;20021;-86
2022/08/18 06:44:02;;;;;;;54.35;20.17;;;;;;;28.42;55.08;100208.75;5055087;28;20047;-85
2022/08/18 06:46:34;;;;;;;;;;;;;;;28.50;54.77;100196.44;5054726;28;20090;-85
2022/08/18 06:49:04;;;;;;;47.03;23.52;;;;;;;28.57;54.38;100208.16;5055339;28;19921;-84
2022/08/18 06:51:31;;;;;;;48.70;21.70;;;;;;;28.65;54.11;100205.00;5054473;28;20077;-85
2022/08/18 06:54:07;;;;;;;34.22;15.77;;;;;;;28.75;53.63;100215.38;5056504;28;20021;-85
2022/08/18 06:56:45;;;;;;;27.80;13.93;;;;;;;28.77;53.26;100202.97;5056452;28;20499;-85
2022/08/18 06:59:17;;;;;;;19.67;12.93;;;;;;;28.83;53.19;100204.72;5055684;28;20459;-85
2022/08/18 07:01:44;;;;;;;30.30;13.15;;;;;;;28.83;52.96;100203.88;5054974;28;20379;-85
2022/08/18 07:04:48;;;;;;;27.95;13.90;;;;;;;28.91;53.14;100209.81;5055453;28;20028;-84
2022/08/18 07:07:28;;;;;;;22.73;12.32;;;;;;;28.98;53.12;100210.50;5050508;28;20044;-85
2022/08/18 07:09:53;;;;;;;30.45;11.90;;;;;;;28.97;53.06;100194.94;5054683;28;20069;-85
2022/08/18 07:12:23;;;;;;;34.35;11.63;;;;;;;29.09;52.93;100212.28;5054770;28;20057;-86
2022/08/18 07:14:53;;;;;;;30.00;12.00;;;;;;;29.06;52.87;100210.03;5054886;28;20021;-86
2022/08/18 07:17:22;;;;;;;27.40;13.68;;;;;;;29.04;52.90;100215.00;5054966;28;20028;-86
2022/08/18 07:20:07;;;;;;;20.83;12.35;;;;;;;29.10;52.85;100213.97;5054166;28;20021;-86
2022/08/18 07:22:51;;;;;;;35.05;12.82;;;;;;;29.04;52.74;100220.53;5055405;28;20052;-86
2022/08/18 07:25:26;;;;;;;32.83;11.73;;;;;;;28.97;52.51;100196.88;5054276;28;20025;-86
2022/08/18 07:27:55;;;;;;;20.33;11.27;;;;;;;29.15;52.51;100221.50;5054267;28;20497;-85
2022/08/18 07:30:20;;;;;;;22.60;12.13;;;;;;;29.24;52.19;100224.69;5054249;28;20476;-85
2022/08/18 07:33:20;;;;;;;25.70;12.00;;;;;;;29.12;52.50;100224.78;5054487;28;20497;-84
2022/08/18 07:35:49;;;;;;;24.98;12.98;;;;;;;29.13;51.96;100223.69;5053455;28;20033;-85
2022/08/18 07:38:41;;;;;;;33.58;12.23;;;;;;;29.03;51.83;100202.25;5052900;28;20053;-85
2022/08/18 07:41:14;;;;;;;34.47;12.38;;;;;;;29.21;51.89;100226.03;5054429;28;20025;-86
2022/08/18 07:43:52;;;;;;;28.20;12.80;;;;;;;29.18;52.64;100223.75;5054784;28;20497;-85
2022/08/18 07:46:25;;;;;;;34.15;11.50;;;;;;;29.10;53.11;100232.53;5055470;28;20065;-85
2022/08/18 07:48:50;;;;;;;27.33;12.75;;;;;;;29.11;53.24;100226.72;5054456;28;20064;-85
2022/08/18 07:51:24;;;;;;;60.95;15.32;;;;;;;29.16;53.16;100229.56;5053661;28;20106;-85
2022/08/18 07:53:57;;;;;;;24.20;12.32;;;;;;;29.21;53.33;100214.94;5053923;28;20052;-84
2022/08/18 07:56:49;;;;;;;24.25;12.48;;;;;;;29.24;53.11;100216.38;5054025;28;20025;-85
2022/08/18 07:59:37;;;;;;;18.33;11.10;;;;;;;29.28;53.24;100226.72;5053825;28;20033;-85
2022/08/18 08:02:24;;;;;;;21.75;12.07;;;;;;;29.32;53.26;100222.34;5057400;28;20052;-85
2022/08/18 08:05:01;;;;;;;19.75;11.02;;;;;;;29.29;52.96;100219.25;5057528;28;20029;-86
2022/08/18 08:07:33;;;;;;;26.52;12.00;;;;;;;29.33;53.40;100223.16;5057527;28;20466;-87
2022/08/18 08:10:17;;;;;;;14.52;12.18;;;;;;;29.28;52.79;100215.63;5056445;28;20561;-86
2022/08/18 08:12:54;;;;;;;22.35;11.45;;;;;;;29.26;52.67;100206.75;5057591;28;20040;-86
2022/08/18 08:15:21;;;;;;;21.52;11.70;;;;;;;29.37;52.85;100214.09;5057786;28;20056;-86
2022/08/18 08:18:04;;;;;;;26.70;12.27;;;;;;;29.52;52.51;100216.19;5057521;28;20482;-86
2022/08/18 08:20:50;;;;;;;20.77;11.75;;;;;;;29.64;52.21;100216.91;5057989;28;20537;-86
2022/08/18 08:23:28;;;;;;;21.02;11.77;;;;;;;29.74;51.98;100211.47;5058029;28;20035;-86
2022/08/18 08:26:18;;;;;;;21.42;11.02;;;;;;;29.85;51.97;100215.22;5057224;28;20501;-87
2022/08/18 08:29:14;;;;;;;43.78;11.05;;;;;;;29.87;51.80;100213.88;5060012;28;20084;-85
2022/08/18 08:31:44;;;;;;;15.45;10.73;;;;;;;29.95;51.02;100205.09;5057463;28;20029;-86
2022/08/18 08:34:38;;;;;;;26.65;11.65;;;;;;;30.03;51.00;100210.16;5057767;28;20025;-86
2022/08/18 08:37:08;;;;;;;18.17;10.15;;;;;;;29.99;51.23;100211.78;5056788;28;20025;-85
2022/08/18 08:39:47;;;;;;;25.05;10.75;;;;;;;29.89;50.82;100208.06;5054679;28;20013;-85
2022/08/18 08:42:27;;;;;;;20.50;10.05;;;;;;;29.87;50.13;100213.88;5055297;28;20021;-86
2022/08/18 08:45:22;;;;;;;22.60;10.98;;;;;;;29.86;50.53;100214.97;5057332;28;20048;-86
2022/08/18 08:47:58;;;;;;;18.90;10.48;;;;;;;29.92;50.57;100211.16;5055605;28;20041;-85
2022/08/18 08:50:27;;;;;;;28.50;10.07;;;;;;;30.01;49.74;100203.19;5056017;28;20078;-86
2022/08/18 08:53:01;;;;;;;18.98;10.40;;;;;;;30.03;49.97;100201.00;5056953;28;20135;-86
2022/08/18 08:55:34;;;;;;;27.70;10.93;;;;;;;30.16;49.79;100204.19;5058093;28;20025;-85
2022/08/18 08:58:17;;;;;;;26.73;11.05;;;;;;;30.29;49.51;100190.97;5059889;28;20056;-86
2022/08/18 09:00:44;;;;;;;18.63;9.88;;;;;;;30.39;49.14;100200.25;5057523;28;20103;-86
2022/08/18 09:03:45;;;;;;;17.35;9.65;;;;;;;30.44;49.63;100202.22;5056099;28;20109;-86
2022/08/18 09:06:25;;;;;;;16.15;10.23;;;;;;;30.54;49.53;100202.31;5055992;28;20021;-83
2022/08/18 09:09:26;;;;;;;13.52;10.50;;;;;;;30.71;48.54;100202.97;5056086;28;20587;-84
2022/08/18 09:11:54;;;;;;;18.98;9.45;;;;;;;30.81;48.85;100208.63;5053005;28;20045;-85
2022/08/18 09:14:46;;;;;;;19.42;11.35;;;;;;;30.74;48.95;100202.44;5055965;28;20040;-85
2022/08/18 09:17:23;;;;;;;23.08;10.35;;;;;;;30.79;49.89;100193.34;5054964;28;20455;-85
2022/08/18 09:20:11;;;;;;;26.27;11.02;;;;;;;30.93;49.88;100195.38;5055455;28;20107;-85
2022/08/18 09:23:01;;;;;;;20.85;10.35;;;;;;;30.93;49.36;100200.06;5054666;28;20036;-84
2022/08/18 09:25:40;;;;;;;27.90;11.25;;;;;;;30.85;49.45;100198.66;5055606;28;20478;-86
2022/08/18 09:28:29;;;;;;;18.40;10.45;;;;;;;30.87;48.71;100199.22;5055996;28;20025;-85
2022/08/18 09:31:00;;;;;;;20.83;10.65;;;;;;;30.88;48.89;100198.13;5055390;28;20055;-84
2022/08/18 09:33:44;;;;;;;31.88;12.20;;;;;;;30.96;50.08;100194.00;5055114;28;20039;-84
2022/08/18 09:36:33;;;;;;;29.05;11.93;;;;;;;30.88;51.14;100200.06;5055376;28;20025;-83
2022/08/18 09:42:00;;;;;;;61.35;12.10;;;;;;;30.71;51.29;100194.66;5055425;28;20120;-84
2022/08/18 09:44:47;;;;;;;20.65;11.18;;;;;;;30.48;52.00;100203.38;5054919;28;20029;-83
2022/08/18 09:47:19;;;;;;;24.73;11.80;;;;;;;30.61;51.60;100198.19;5054804;28;20029;-84
2022/08/18 09:50:08;;;;;;;32.72;10.52;;;;;;;30.49;51.31;100183.66;5053735;28;20071;-78
2022/08/18 09:52:34;;;;;;;22.73;12.65;;;;;;;30.65;51.01;100198.50;5052295;28;20532;-77
2022/08/18 09:55:04;;;;;;;31.10;11.52;;;;;;;30.70;50.52;100201.34;5053272;28;20044;-78
2022/08/18 09:57:32;;;;;;;15.25;10.70;;;;;;;30.55;51.76;100192.91;5052484;28;20028;-75
2022/08/18 10:00:27;;;;;;;46.97;14.25;;;;;;;30.56;52.22;100194.53;5052027;28;20094;-76
2022/08/18 10:02:52;;;;;;;18.23;9.30;;;;;;;30.59;53.03;100199.56;5050382;28;20465;-75
2022/08/18 10:05:21;;;;;;;18.90;11.55;;;;;;;30.73;53.05;100189.69;5052608;28;20155;-78
2022/08/18 10:07:57;;;;;;;17.52;10.52;;;;;;;30.96;52.79;100199.56;5052640;28;20080;-79
2022/08/18 10:10:42;;;;;;;29.40;11.63;;;;;;;31.13;50.95;100189.13;5052498;28;20025;-78
2022/08/18 10:13:25;;;;;;;22.27;11.43;;;;;;;31.20;50.35;100184.13;5052294;28;20028;-77
2022/08/18 10:16:06;;;;;;;49.28;12.13;;;;;;;31.19;50.59;100188.84;5051629;28;20032;-76
2022/08/18 10:18:39;;;;;;;29.13;12.40;;;;;;;31.17;50.61;100193.84;5051590;28;20045;-75
2022/08/18 10:21:07;;;;;;;20.20;10.52;;;;;;;31.20;50.41;100192.47;5051466;28;20052;-75
2022/08/18 10:24:07;;;;;;;17.15;11.23;;;;;;;31.21;50.30;100175.53;5050744;28;20029;-75
2022/08/18 10:26:33;;;;;;;29.63;11.98;;;;;;;31.18;51.03;100175.25;5051125;28;20032;-75
2022/08/18 10:29:02;;;;;;;28.77;10.90;;;;;;;31.14;51.85;100179.66;5051313;28;20079;-77
2022/08/18 10:31:30;;;;;;;24.58;10.70;;;;;;;31.21;51.68;100185.81;5050128;28;20033;-77
2022/08/18 10:34:10;;;;;;;24.65;11.60;;;;;;;31.14;51.88;100174.09;5051434;28;20043;-78
2022/08/18 10:36:44;;;;;;;20.95;12.00;;;;;;;31.11;52.60;100192.16;5051139;28;20049;-77
2022/08/18 10:39:15;;;;;;;15.15;9.82;;;;;;;30.99;54.80;100188.75;5051135;28;20039;-76
2022/08/18 10:42:05;;;;;;;27.58;11.20;;;;;;;30.81;56.72;100193.88;5051103;28;20481;-76
2022/08/18 10:44:36;;;;;;;26.27;11.70;;;;;;;30.89;55.80;100183.09;5051222;28;20087;-76
2022/08/18 10:47:02;;;;;;;14.77;11.15;;;;;;;30.87;55.59;100190.88;5051034;28;20053;-78
2022/08/18 10:49:32;;;;;;;27.02;11.48;;;;;;;30.90;56.31;100195.91;5050973;28;20029;-76
2022/08/18 10:52:21;;;;;;;23.48;11.75;;;;;;;30.81;57.09;100191.13;5051080;28;20411;-78
2022/08/18 10:55:13;;;;;;;15.93;10.68;;;;;;;30.70;57.08;100184.69;5051727;28;20033;-78
2022/08/18 10:57:58;;;;;;;15.40;12.30;;;;;;;30.68;58.60;100198.81;5051435;28;20017;-78
2022/08/18 11:00:41;;;;;;;22.83;11.48;;;;;;;30.47;58.54;100191.44;5051293;28;20059;-78
2022/08/18 11:03:16;;;;;;;27.02;11.23;;;;;;;30.61;58.63;100197.38;5051537;28;20021;-77
2022/08/18 11:05:42;;;;;;;13.55;10.38;;;;;;;30.46;56.54;100155.59;5050850;28;20036;-78
2022/08/18 11:08:19;;;;;;;28.50;11.02;;;;;;;30.63;56.66;100189.63;5049293;28;20028;-78
2022/08/18 11:10:49;;;;;;;11.38;10.18;;;;;;;30.57;57.42;100190.69;5050860;28;20020;-77
2022/08/18 11:13:53;;;;;;;28.02;12.40;;;;;;;30.54;58.02;100194.00;5050712;28;20021;-76
2022/08/18 11:16:30;;;;;;;16.95;10.35;;;;;;;30.54;58.70;100202.31;5050452;28;20032;-77
2022/08/18 11:19:05;;;;;;;18.95;10.95;;;;;;;30.39;58.91;100182.75;5050702;28;20025;-77
2022/08/18 11:21:44;;;;;;;15.98;10.23;;;;;;;30.42;58.53;100173.91;5050616;28;20083;-77
2022/08/18 11:24:25;;;;;;;281.35;39.28;;;;;;;30.63;57.31;100178.50;5049184;28;20028;-78
2022/08/18 11:26:58;;;;;;;26.48;11.18;;;;;;;30.63;55.71;100170.19;5050597;28;20029;-78
2022/08/18 11:29:30;;;;;;;32.60;12.05;;;;;;;30.61;56.02;100181.53;5050587;28;20025;-76
2022/08/18 11:32:01;;;;;;;31.25;11.52;;;;;;;30.50;56.43;100179.78;5050437;28;20033;-77
2022/08/18 11:34:48;;;;;;;26.47;11.90;;;;;;;30.80;56.29;100190.28;5049998;28;20031;-77
2022/08/18 11:37:52;;;;;;;20.38;9.73;;;;;;;30.81;56.26;100186.41;5050388;28;20082;-76
2022/08/18 11:40:17;;;;;;;12.93;10.35;;;;;;;30.81;56.26;100180.84;5051652;28;20020;-77
2022/08/18 11:42:53;;;;;;;16.95;9.75;;;;;;;30.81;55.76;100177.22;5051315;28;20463;-76
2022/08/18 11:45:23;;;;;;;23.38;10.70;;;;;;;30.82;54.67;100188.09;5051312;28;20028;-77
2022/08/18 11:48:27;;;;;;;34.08;11.60;;;;;;;30.96;54.38;100172.63;5049959;28;20436;-75